Time;durP1;ratioP1;P1;durP2;ratioP2;P2;SDS_P1;SDS_P2;PMS_P1;PMS_P2;Temp;Humidity;BMP_temperature;BMP_pressure;BME280_temperature;BME280_humidity;BME280_pressure;Samples;Min_cycle;Max_cycle;Signal;HPM_P1;HPM_P2
2022/11/17 00:00:18;;;;;;;32.60;18.55;;;9.20;99.90;;;;;;4792029;29;20051;-72
2022/11/17 00:02:44;;;;;;;30.35;17.58;;;9.20;99.90;;;;;;4792031;29;20043;-72
2022/11/17 00:05:10;;;;;;;31.00;16.85;;;9.20;99.90;;;;;;4791710;29;20055;-73
2022/11/17 00:07:35;;;;;;;30.27;16.88;;;9.30;99.90;;;;;;4791780;29;20046;-72
2022/11/17 00:10:01;;;;;;;31.58;16.80;;;9.30;99.90;;;;;;4790840;30;20111;-72
2022/11/17 00:15:11;;;;;;;28.27;17.30;;;9.40;99.90;;;;;;4791678;29;20496;-72
2022/11/17 00:17:36;;;;;;;32.25;17.23;;;9.20;99.90;;;;;;4790622;30;20047;-72
2022/11/17 00:22:47;;;;;;;28.17;17.60;;;9.30;99.90;;;;;;4791529;29;20119;-72
2022/11/17 00:25:13;;;;;;;27.58;16.45;;;9.30;99.90;;;;;;4790472;30;20437;-72
2022/11/17 00:27:38;;;;;;;26.52;15.93;;;9.30;99.90;;;;;;4790192;30;20054;-72
2022/11/17 00:30:05;;;;;;;27.95;16.38;;;9.30;99.90;;;;;;4775484;30;20086;-72
2022/11/17 00:35:16;;;;;;;23.67;15.23;;;9.10;99.90;;;;;;4791285;29;20090;-72
2022/11/17 00:40:25;;;;;;;24.52;15.30;;;9.20;99.90;;;;;;4791319;29;20126;-72
2022/11/17 00:42:51;;;;;;;24.40;16.92;;;9.10;99.90;;;;;;4790324;30;20130;-72
2022/11/17 00:45:16;;;;;;;23.83;15.55;;;9.20;99.90;;;;;;4791334;29;20043;-72
2022/11/17 00:47:42;;;;;;;28.75;15.70;;;9.10;99.90;;;;;;4790991;29;20055;-72
2022/11/17 00:50:08;;;;;;;24.55;16.15;;;9.10;99.90;;;;;;4791238;29;20099;-72
2022/11/17 00:52:34;;;;;;;23.73;15.02;;;9.00;99.90;;;;;;4790768;29;20507;-72
2022/11/17 00:55:00;;;;;;;24.67;15.70;;;9.10;99.90;;;;;;4791244;29;20043;-73
2022/11/17 00:57:26;;;;;;;24.33;15.55;;;9.20;99.90;;;;;;4791161;29;20346;-72
2022/11/17 00:59:51;;;;;;;28.42;16.05;;;9.20;99.90;;;;;;4791476;29;20132;-72
2022/11/17 01:02:17;;;;;;;24.75;14.90;;;9.20;99.90;;;;;;4791201;29;20039;-72
2022/11/17 01:04:43;;;;;;;22.73;14.90;;;9.20;99.90;;;;;;4791060;29;20059;-72
2022/11/17 01:07:08;;;;;;;21.38;14.27;;;9.10;99.90;;;;;;4790876;29;20055;-72
2022/11/17 01:09:34;;;;;;;21.42;14.18;;;9.10;99.90;;;;;;4790929;29;20059;-73
2022/11/17 01:12:00;;;;;;;24.00;15.23;;;9.00;99.90;;;;;;4791062;29;20051;-72
2022/11/17 01:14:28;;;;;;;25.55;14.13;;;9.10;99.90;;;;;;4789880;30;20054;-72
2022/11/17 01:16:54;;;;;;;22.63;14.07;;;9.00;99.90;;;;;;4791085;29;20100;-72
2022/11/17 01:19:21;;;;;;;25.27;15.15;;;9.10;99.90;;;;;;4791303;30;20043;-72
2022/11/17 01:21:47;;;;;;;24.75;15.40;;;9.00;99.90;;;;;;4790669;29;20040;-72
2022/11/17 01:24:15;;;;;;;22.63;14.98;;;8.90;99.90;;;;;;4790815;30;20044;-72
2022/11/17 01:26:41;;;;;;;23.50;14.40;;;8.90;99.90;;;;;;4791088;29;20090;-74
2022/11/17 01:29:10;;;;;;;24.60;14.80;;;9.00;99.90;;;;;;4790753;29;20070;-72
2022/11/17 01:31:39;;;;;;;22.88;14.38;;;9.00;99.90;;;;;;4790917;29;20059;-72
2022/11/17 01:34:06;;;;;;;24.98;14.75;;;9.00;99.90;;;;;;4790926;29;20315;-72
2022/11/17 01:37:17;;;;;;;21.10;14.40;;;9.00;99.90;;;;;;4790813;29;20054;-72
2022/11/17 01:39:25;;;;;;;19.98;13.57;;;9.10;99.90;;;;;;4789606;30;20055;-72
2022/11/17 01:41:52;;;;;;;21.05;14.32;;;9.00;99.90;;;;;;4790044;30;20047;-72
2022/11/17 01:44:48;;;;;;;23.42;14.43;;;9.00;99.90;;;;;;4789999;30;20077;-72
2022/11/17 01:47:32;;;;;;;23.90;15.43;;;8.90;99.90;;;;;;4790862;30;20096;-72
2022/11/17 01:50:18;;;;;;;30.98;18.75;;;8.80;99.90;;;;;;4790777;30;20047;-72
2022/11/17 01:52:45;;;;;;;31.97;20.97;;;8.90;99.90;;;;;;4790293;30;20130;-72
2022/11/17 01:55:11;;;;;;;37.63;22.98;;;8.90;99.90;;;;;;4790604;29;20453;-72
2022/11/17 01:58:08;;;;;;;37.05;24.15;;;8.90;99.90;;;;;;4790772;29;20058;-72
2022/11/17 02:00:34;;;;;;;32.40;21.08;;;8.80;99.90;;;;;;4791666;30;20138;-71
2022/11/17 02:03:00;;;;;;;42.15;26.00;;;8.80;99.90;;;;;;4793834;29;20134;-72
2022/11/17 02:05:35;;;;;;;40.40;23.92;;;8.90;99.90;;;;;;4793822;29;20054;-72
2022/11/17 02:08:04;;;;;;;46.35;28.15;;;8.80;99.90;;;;;;4793712;29;20349;-72
2022/11/17 02:10:31;;;;;;;45.15;27.20;;;8.90;99.90;;;;;;4793996;29;20089;-72
2022/11/17 02:12:59;;;;;;;43.58;25.35;;;8.80;99.90;;;;;;4793769;29;20075;-72
2022/11/17 02:15:26;;;;;;;37.72;24.08;;;8.80;99.90;;;;;;4793559;29;20458;-72
2022/11/17 02:17:53;;;;;;;33.50;20.95;;;8.80;99.90;;;;;;4792600;30;20081;-72
2022/11/17 02:20:57;;;;;;;29.08;19.60;;;8.80;99.90;;;;;;4792474;30;20127;-72
2022/11/17 02:23:47;;;;;;;28.48;18.17;;;8.80;99.90;;;;;;4793232;29;20047;-72
2022/11/17 02:26:23;;;;;;;28.92;18.85;;;8.70;99.90;;;;;;4793438;29;20105;-72
2022/11/17 02:29:05;;;;;;;26.95;17.15;;;8.80;99.90;;;;;;4793308;29;20112;-72
2022/11/17 02:32:00;;;;;;;23.83;15.13;;;8.90;99.90;;;;;;4793644;29;20337;-72
2022/11/17 02:34:46;;;;;;;20.42;14.27;;;8.90;99.90;;;;;;4760414;29;20056;-72
2022/11/17 02:37:21;;;;;;;20.48;14.40;;;9.00;99.90;;;;;;4793190;30;20084;-72
2022/11/17 02:39:58;;;;;;;24.07;13.60;;;9.00;99.90;;;;;;4793497;30;20079;-72
2022/11/17 02:45:31;;;;;;;25.67;15.95;;;9.00;99.90;;;;;;4793546;29;20055;-72
2022/11/17 02:47:59;;;;;;;28.92;17.30;;;9.00;99.90;;;;;;4793331;29;20130;-72
2022/11/17 02:50:26;;;;;;;23.15;16.48;;;9.10;99.90;;;;;;4792924;29;20438;-72
2022/11/17 02:52:51;;;;;;;24.83;16.55;;;9.00;99.90;;;;;;4793031;30;20047;-72
2022/11/17 02:55:18;;;;;;;22.65;16.10;;;8.90;99.90;;;;;;4793026;30;20513;-72
2022/11/17 02:57:43;;;;;;;26.48;17.60;;;8.90;99.90;;;;;;4792865;29;20055;-72
2022/11/17 03:00:15;;;;;;;25.52;16.10;;;8.90;99.90;;;;;;4792884;29;20130;-72
2022/11/17 03:03:25;;;;;;;26.88;18.05;;;8.90;99.90;;;;;;4792874;29;20445;-72
2022/11/17 03:06:02;;;;;;;27.15;16.90;;;8.80;99.90;;;;;;4793170;29;20048;-72
2022/11/17 03:08:53;;;;;;;25.50;16.63;;;8.80;99.90;;;;;;4792917;30;20044;-76
2022/11/17 03:11:27;;;;;;;26.17;17.25;;;8.70;99.90;;;;;;4792946;29;20051;-72
2022/11/17 03:14:17;;;;;;;24.55;15.98;;;8.80;99.90;;;;;;4792706;29;20050;-72
2022/11/17 03:17:00;;;;;;;28.17;17.95;;;8.80;99.90;;;;;;4792466;30;20047;-73
2022/11/17 03:19:36;;;;;;;27.83;18.23;;;8.90;99.90;;;;;;4792771;30;20051;-73
2022/11/17 03:22:08;;;;;;;;;;;8.80;99.90;;;;;;4792581;29;20576;-72
2022/11/17 03:25:05;;;;;;;30.25;17.20;;;8.70;99.90;;;;;;4792691;29;19960;-73
2022/11/17 03:27:35;;;;;;;23.52;17.05;;;8.60;99.90;;;;;;4785201;29;20055;-72
2022/11/17 03:30:05;;;;;;;29.45;18.33;;;8.60;99.90;;;;;;4792375;29;20059;-72
2022/11/17 03:32:39;;;;;;;28.10;19.05;;;8.70;99.90;;;;;;4792399;29;20043;-72
2022/11/17 03:35:18;;;;;;;30.20;20.27;;;8.50;99.90;;;;;;4792264;29;20047;-72
2022/11/17 03:37:49;;;;;;;31.75;18.73;;;8.50;99.90;;;;;;4791997;29;20514;-73
2022/11/17 03:40:19;;;;;;;30.38;17.95;;;8.60;99.90;;;;;;4792278;29;20122;-72
2022/11/17 03:42:52;;;;;;;32.67;18.95;;;8.50;99.90;;;;;;4776004;30;20051;-72
2022/11/17 03:45:23;;;;;;;26.95;18.48;;;8.60;99.90;;;;;;4792180;29;20043;-72
2022/11/17 03:47:55;;;;;;;25.27;17.02;;;8.60;99.90;;;;;;4791930;30;20051;-72
2022/11/17 03:50:28;;;;;;;26.48;17.92;;;8.50;99.90;;;;;;4792029;29;20081;-72
2022/11/17 03:52:54;;;;;;;31.27;17.88;;;8.40;99.90;;;;;;4791748;30;20086;-72
2022/11/17 03:55:25;;;;;;;27.85;18.67;;;8.40;99.90;;;;;;4792025;29;20093;-73
2022/11/17 03:57:55;;;;;;;30.52;18.10;;;8.40;99.90;;;;;;4791794;30;20501;-72
2022/11/17 04:00:20;;;;;;;27.05;17.90;;;8.30;99.90;;;;;;4791822;30;20350;-72
2022/11/17 04:02:52;;;;;;;30.25;18.40;;;8.30;99.90;;;;;;4791723;30;20043;-72
2022/11/17 04:05:18;;;;;;;34.08;21.75;;;8.40;99.90;;;;;;4791968;29;20055;-72
2022/11/17 04:07:46;;;;;;;38.25;22.00;;;8.30;99.90;;;;;;4791875;29;20058;-72
2022/11/17 04:10:17;;;;;;;39.95;23.25;;;8.30;99.90;;;;;;4790577;30;20054;-72
2022/11/17 04:18:11;;;;;;;36.30;22.45;;;8.20;99.90;;;;;;4791652;29;20066;-72
2022/11/17 04:20:37;;;;;;;42.95;25.17;;;8.20;99.90;;;;;;4791667;29;20043;-72
2022/11/17 04:23:06;;;;;;;43.92;24.40;;;8.20;99.90;;;;;;4790555;29;20047;-72
2022/11/17 04:28:37;;;;;;;44.05;25.13;;;8.20;99.90;;;;;;4791598;29;20070;-72
2022/11/17 04:31:15;;;;;;;37.03;21.75;;;8.20;99.90;;;;;;4791299;29;20051;-72
2022/11/17 04:33:43;;;;;;;34.08;20.00;;;8.10;99.90;;;;;;4791595;30;20079;-72
2022/11/17 04:36:11;;;;;;;41.03;22.90;;;8.10;99.90;;;;;;4791193;29;20454;-72
2022/11/17 04:38:41;;;;;;;34.13;21.20;;;8.10;99.90;;;;;;4790227;30;20094;-72
2022/11/17 04:43:53;;;;;;;41.00;24.15;;;8.00;99.90;;;;;;4791262;29;20114;-72
2022/11/17 04:46:20;;;;;;;43.33;24.77;;;8.00;99.90;;;;;;4791268;29;20047;-72
2022/11/17 04:48:46;;;;;;;43.67;23.63;;;8.00;99.90;;;;;;4790010;30;20399;-72
2022/11/17 04:51:13;;;;;;;39.33;21.73;;;8.00;99.90;;;;;;4790218;30;20491;-72
2022/11/17 04:53:39;;;;;;;36.25;21.30;;;8.00;99.90;;;;;;4790856;29;20331;-72
2022/11/17 04:56:05;;;;;;;38.78;22.42;;;7.90;99.90;;;;;;4791462;29;20044;-72
2022/11/17 04:58:31;;;;;;;36.08;20.95;;;7.90;99.90;;;;;;4790412;30;20376;-72
2022/11/17 05:01:11;;;;;;;38.85;21.40;;;7.80;99.90;;;;;;4791035;29;20039;-75
2022/11/17 05:03:42;;;;;;;43.03;23.67;;;7.90;99.90;;;;;;4790137;30;20118;-73
2022/11/17 05:06:17;;;;;;;42.55;24.77;;;7.90;99.90;;;;;;4791173;29;20077;-72
2022/11/17 05:08:44;;;;;;;43.45;24.02;;;7.90;99.90;;;;;;4791179;29;20062;-72
2022/11/17 05:13:56;;;;;;;38.95;22.65;;;7.80;99.90;;;;;;4791183;29;20066;-73
2022/11/17 05:19:09;;;;;;;30.85;20.88;;;7.80;99.90;;;;;;4790994;29;20134;-72
2022/11/17 05:21:35;;;;;;;31.73;19.27;;;7.80;99.90;;;;;;4790984;30;20054;-72
2022/11/17 05:24:00;;;;;;;40.25;23.98;;;7.80;99.90;;;;;;4790459;29;20434;-73
2022/11/17 05:26:29;;;;;;;32.13;19.52;;;7.80;99.90;;;;;;4790969;29;20131;-73
2022/11/17 05:28:56;;;;;;;36.17;21.00;;;7.80;99.90;;;;;;4790743;29;20430;-72
2022/11/17 05:31:23;;;;;;;34.75;20.80;;;7.80;99.90;;;;;;4790760;30;20063;-72
2022/11/17 05:33:48;;;;;;;28.70;19.10;;;7.70;99.90;;;;;;4791543;29;20051;-72
2022/11/17 05:36:14;;;;;;;31.33;20.15;;;7.70;99.90;;;;;;4794400;30;20134;-72
2022/11/17 05:38:40;;;;;;;28.77;18.42;;;7.80;99.90;;;;;;4794452;29;20426;-73
2022/11/17 05:41:06;;;;;;;28.13;17.98;;;7.70;99.90;;;;;;4794386;29;20047;-72
2022/11/17 05:43:32;;;;;;;22.27;14.20;;;7.60;99.90;;;;;;4794419;30;20058;-72
2022/11/17 05:45:58;;;;;;;24.38;16.05;;;7.60;99.90;;;;;;4794222;29;20040;-73
2022/11/17 05:48:23;;;;;;;20.67;14.32;;;7.60;99.90;;;;;;4793076;30;20437;-73
2022/11/17 05:50:53;;;;;;;24.02;15.82;;;7.60;99.90;;;;;;4793090;30;20043;-72
2022/11/17 05:53:20;;;;;;;24.10;15.55;;;7.70;99.90;;;;;;4793532;30;20055;-72
2022/11/17 05:55:46;;;;;;;22.17;14.73;;;7.60;99.90;;;;;;4794270;29;20050;-72
2022/11/17 05:58:20;;;;;;;23.35;15.25;;;7.70;99.90;;;;;;4794075;29;20051;-72
2022/11/17 06:00:45;;;;;;;22.33;13.77;;;7.70;99.90;;;;;;4794050;29;20127;-73
2022/11/17 06:03:25;;;;;;;18.23;12.57;;;7.80;99.90;;;;;;4793811;29;20047;-72
2022/11/17 06:05:52;;;;;;;18.65;12.25;;;7.80;99.90;;;;;;4793674;30;20375;-73
2022/11/17 06:08:18;;;;;;;17.60;12.68;;;7.80;99.90;;;;;;4793974;30;20112;-72
2022/11/17 06:10:44;;;;;;;20.30;14.32;;;7.60;99.90;;;;;;4793773;29;20112;-72
2022/11/17 06:13:10;;;;;;;22.90;15.77;;;7.60;99.90;;;;;;4793690;29;20051;-72
2022/11/17 06:15:35;;;;;;;25.38;16.23;;;7.70;99.90;;;;;;4793631;29;20130;-72
2022/11/17 06:18:15;;;;;;;24.17;16.48;;;7.80;99.90;;;;;;4793691;29;20124;-72
2022/11/17 06:20:47;;;;;;;27.40;18.75;;;7.80;99.90;;;;;;4793611;29;20043;-72
2022/11/17 06:23:14;;;;;;;24.25;15.20;;;7.70;99.90;;;;;;4793433;30;20086;-73
2022/11/17 06:25:40;;;;;;;23.90;16.10;;;7.70;99.90;;;;;;4793457;29;20055;-72
2022/11/17 06:28:10;;;;;;;20.33;13.88;;;7.60;99.90;;;;;;4793188;29;20055;-71
2022/11/17 06:30:37;;;;;;;17.10;10.82;;;7.50;99.90;;;;;;4793078;29;20415;-72
2022/11/17 06:33:04;;;;;;;16.95;11.18;;;7.50;99.90;;;;;;4793467;29;20062;-72
2022/11/17 06:35:33;;;;;;;16.15;10.77;;;7.50;99.90;;;;;;4793362;29;20051;-72
2022/11/17 06:37:59;;;;;;;17.77;11.05;;;7.50;99.90;;;;;;4793300;29;20052;-73
2022/11/17 06:40:25;;;;;;;18.38;11.02;;;7.40;99.90;;;;;;4793260;29;20062;-72
2022/11/17 06:43:10;;;;;;;17.80;11.25;;;7.50;99.90;;;;;;4792361;30;20051;-72
2022/11/17 06:45:41;;;;;;;18.08;11.23;;;7.60;99.90;;;;;;4792707;29;20391;-72
2022/11/17 06:48:08;;;;;;;17.95;11.65;;;7.50;99.90;;;;;;4793424;29;20154;-72
2022/11/17 06:50:33;;;;;;;18.90;12.00;;;7.60;99.90;;;;;;4793119;30;20120;-72
2022/11/17 06:53:06;;;;;;;17.90;11.10;;;7.50;99.90;;;;;;4791928;30;20097;-72
2022/11/17 06:55:33;;;;;;;17.98;11.90;;;7.40;99.90;;;;;;4792850;29;20107;-72
2022/11/17 06:58:06;;;;;;;19.58;12.95;;;7.40;99.90;;;;;;4793023;29;20047;-73
2022/11/17 07:00:34;;;;;;;20.45;12.60;;;7.50;99.90;;;;;;4792893;29;20047;-72
2022/11/17 07:03:00;;;;;;;19.95;11.85;;;7.40;99.90;;;;;;4792796;29;20051;-72
2022/11/17 07:05:26;;;;;;;17.63;10.38;;;7.40;99.90;;;;;;4793029;29;20039;-72
2022/11/17 07:07:56;;;;;;;16.35;11.52;;;7.40;99.90;;;;;;4792690;29;20047;-72
2022/11/17 07:10:22;;;;;;;17.88;11.48;;;7.40;99.90;;;;;;4806845;29;20097;-72
2022/11/17 07:12:47;;;;;;;19.33;11.82;;;7.50;99.90;;;;;;4792600;29;20082;-72
2022/11/17 07:15:13;;;;;;;16.48;10.90;;;7.50;99.90;;;;;;4792865;30;20047;-73
2022/11/17 07:17:39;;;;;;;21.27;12.98;;;7.40;99.90;;;;;;4792594;29;20055;-73
2022/11/17 07:20:05;;;;;;;21.90;13.30;;;7.40;99.90;;;;;;4792783;30;20047;-72
2022/11/17 07:22:30;;;;;;;19.85;12.48;;;7.40;99.90;;;;;;4791275;30;20085;-73
2022/11/17 07:24:56;;;;;;;22.10;13.55;;;7.40;99.90;;;;;;4792686;30;20044;-73
2022/11/17 07:27:22;;;;;;;22.98;14.02;;;7.40;99.90;;;;;;4792305;29;20345;-72
2022/11/17 07:29:47;;;;;;;20.67;12.93;;;7.50;99.90;;;;;;4792331;29;20067;-72
2022/11/17 07:32:13;;;;;;;16.67;11.13;;;7.50;99.90;;;;;;4784474;29;20051;-72
2022/11/17 07:34:40;;;;;;;14.38;10.40;;;7.50;99.90;;;;;;4782736;29;20040;-73
2022/11/17 07:37:06;;;;;;;13.90;9.93;;;7.50;99.90;;;;;;4782301;29;20054;-72
2022/11/17 07:39:32;;;;;;;14.45;10.57;;;7.50;99.90;;;;;;4782399;30;20126;-73
2022/11/17 07:41:58;;;;;;;14.98;9.40;;;7.50;99.90;;;;;;4781116;29;20119;-73
2022/11/17 07:44:23;;;;;;;14.35;9.30;;;7.60;99.90;;;;;;4782235;29;20075;-68
2022/11/17 07:46:49;;;;;;;15.63;9.57;;;7.60;99.90;;;;;;4782074;29;20044;-70
2022/11/17 07:49:15;;;;;;;13.23;8.82;;;7.70;99.90;;;;;;4781803;29;20126;-69
2022/11/17 07:51:40;;;;;;;13.95;9.20;;;7.60;99.90;;;;;;4784593;30;20044;-68
2022/11/17 07:54:06;;;;;;;13.32;8.65;;;7.60;99.90;;;;;;4766787;30;20057;-69
2022/11/17 07:56:33;;;;;;;12.25;8.30;;;7.60;99.90;;;;;;4781292;29;20044;-69
2022/11/17 07:58:58;;;;;;;11.75;8.15;;;7.50;99.90;;;;;;4784993;30;20347;-69
2022/11/17 08:01:26;;;;;;;13.18;8.95;;;7.50;99.90;;;;;;4792013;30;20039;-69
2022/11/17 08:03:52;;;;;;;12.82;8.27;;;7.50;99.90;;;;;;4792051;29;20047;-69
2022/11/17 08:06:18;;;;;;;12.10;8.38;;;7.50;99.90;;;;;;4791737;30;20354;-68
2022/11/17 08:08:44;;;;;;;12.77;8.15;;;7.60;99.90;;;;;;4791586;29;20054;-69
2022/11/17 08:11:11;;;;;;;14.00;7.95;;;7.60;99.90;;;;;;4791903;29;20047;-69
2022/11/17 08:13:38;;;;;;;11.82;7.28;;;7.50;99.90;;;;;;4791927;30;20075;-69
2022/11/17 08:16:05;;;;;;;11.30;7.63;;;7.50;99.90;;;;;;4790672;30;20053;-69
2022/11/17 08:18:31;;;;;;;10.95;6.97;;;7.40;99.90;;;;;;4791592;29;20131;-69
2022/11/17 08:21:09;;;;;;;9.27;6.90;;;7.40;99.90;;;;;;4791609;29;20039;-69
2022/11/17 08:23:36;;;;;;;9.60;6.70;;;7.50;99.90;;;;;;4790966;29;20051;-69
2022/11/17 08:26:03;;;;;;;12.13;8.25;;;7.50;99.90;;;;;;4791345;29;20319;-70
2022/11/17 08:28:29;;;;;;;10.65;7.35;;;7.40;99.90;;;;;;4790726;30;20112;-68
2022/11/17 08:30:55;;;;;;;12.65;7.70;;;7.40;99.90;;;;;;4791036;30;20354;-69
2022/11/17 08:33:21;;;;;;;9.75;6.97;;;7.50;99.90;;;;;;4790595;30;20058;-69
2022/11/17 08:35:46;;;;;;;12.52;8.13;;;7.50;99.90;;;;;;4791363;29;20089;-68
2022/11/17 08:38:14;;;;;;;11.73;8.40;;;7.60;99.90;;;;;;4791776;30;20421;-69
2022/11/17 08:40:40;;;;;;;11.95;7.82;;;7.60;99.90;;;;;;4791568;29;20126;-68
2022/11/17 08:43:06;;;;;;;13.30;8.27;;;7.60;99.90;;;;;;4790542;30;20130;-69
2022/11/17 08:45:32;;;;;;;12.30;8.60;;;7.60;99.90;;;;;;4790311;30;20039;-69
2022/11/17 08:47:58;;;;;;;15.52;9.07;;;7.60;99.90;;;;;;4790388;30;20140;-69
2022/11/17 08:50:24;;;;;;;14.15;9.07;;;7.70;99.90;;;;;;4791110;30;20122;-70
2022/11/17 08:52:51;;;;;;;11.90;8.00;;;7.70;99.90;;;;;;4790764;29;20047;-69
2022/11/17 08:55:17;;;;;;;10.88;7.70;;;7.60;99.90;;;;;;4791315;29;20392;-69
2022/11/17 08:57:42;;;;;;;14.98;9.50;;;7.70;99.90;;;;;;4791237;29;20059;-69
2022/11/17 09:00:09;;;;;;;12.55;8.13;;;7.70;99.90;;;;;;4790469;30;20047;-69
2022/11/17 09:02:36;;;;;;;13.88;9.85;;;7.70;99.90;;;;;;4790026;30;20058;-69
2022/11/17 09:05:03;;;;;;;14.88;9.23;;;7.80;99.90;;;;;;4790004;30;20054;-68
2022/11/17 09:07:32;;;;;;;12.63;8.60;;;7.70;99.90;;;;;;4760594;30;20053;-69
2022/11/17 09:09:58;;;;;;;15.65;9.70;;;7.60;99.90;;;;;;4792458;29;20055;-68
2022/11/17 09:12:24;;;;;;;13.13;9.02;;;7.70;99.90;;;;;;4794645;29;20452;-69
2022/11/17 09:14:50;;;;;;;12.68;8.25;;;7.70;99.90;;;;;;4778978;30;20051;-69
2022/11/17 09:17:15;;;;;;;15.00;10.55;;;7.70;99.90;;;;;;4793540;30;20062;-68
2022/11/17 09:19:41;;;;;;;13.05;9.13;;;7.70;99.90;;;;;;4792186;30;20043;-78
2022/11/17 09:22:07;;;;;;;14.30;9.60;;;7.70;99.90;;;;;;4788685;30;20426;-69
2022/11/17 09:24:32;;;;;;;13.25;9.32;;;7.60;99.90;;;;;;4808435;29;20078;-69
2022/11/17 09:26:58;;;;;;;16.10;8.65;;;7.80;99.90;;;;;;4778389;30;20051;-69
2022/11/17 09:29:24;;;;;;;15.55;9.18;;;7.70;99.90;;;;;;4792483;29;20543;-69
2022/11/17 09:31:49;;;;;;;15.15;10.05;;;7.70;99.90;;;;;;4767813;30;20086;-69
2022/11/17 09:34:15;;;;;;;12.73;9.32;;;7.70;99.90;;;;;;4808410;29;20051;-69
2022/11/17 09:36:41;;;;;;;12.35;8.35;;;7.70;99.90;;;;;;4783664;30;20046;-69
2022/11/17 09:39:07;;;;;;;10.90;7.72;;;7.70;99.90;;;;;;4776179;30;20376;-69
2022/11/17 09:41:48;;;;;;;10.85;7.97;;;7.60;99.90;;;;;;4776324;30;20043;-69
2022/11/17 09:44:25;;;;;;;12.10;8.55;;;7.60;99.90;;;;;;4783038;30;20109;-70
2022/11/17 09:46:58;;;;;;;13.23;8.98;;;7.70;99.90;;;;;;4793862;29;20047;-70
2022/11/17 09:49:33;;;;;;;11.65;8.25;;;7.70;99.90;;;;;;4778265;30;20134;-68
2022/11/17 09:52:11;;;;;;;12.00;8.27;;;7.60;99.90;;;;;;4775984;30;20067;-68
2022/11/17 09:55:03;;;;;;;11.77;8.13;;;7.60;99.90;;;;;;4776291;30;20044;-70
2022/11/17 09:57:46;;;;;;;11.68;8.70;;;7.60;99.90;;;;;;4785728;30;20087;-68
2022/11/17 10:00:18;;;;;;;12.27;8.20;;;7.70;99.90;;;;;;4774756;30;20435;-68
2022/11/17 10:02:45;;;;;;;13.68;8.55;;;7.60;99.90;;;;;;4793709;30;20116;-69
2022/11/17 10:05:15;;;;;;;14.00;8.70;;;7.60;99.90;;;;;;4792588;29;20442;-70
2022/11/17 10:07:49;;;;;;;13.90;8.75;;;7.60;99.90;;;;;;4791633;29;20043;-68
2022/11/17 10:10:27;;;;;;;13.07;8.90;;;7.60;99.90;;;;;;4793489;30;20127;-68
2022/11/17 10:13:04;;;;;;;13.02;8.43;;;7.60;99.90;;;;;;4793782;29;20043;-67
2022/11/17 10:15:47;;;;;;;13.02;8.45;;;7.70;99.90;;;;;;4793882;29;20054;-68
2022/11/17 10:18:15;;;;;;;12.93;8.73;;;7.80;99.90;;;;;;4793472;29;20053;-67
2022/11/17 10:20:42;;;;;;;12.07;8.63;;;7.70;99.90;;;;;;4791611;29;20051;-72
2022/11/17 10:23:13;;;;;;;11.77;8.55;;;7.70;99.90;;;;;;4793330;29;20048;-67
2022/11/17 10:25:42;;;;;;;12.00;8.85;;;7.70;99.90;;;;;;4792565;30;20328;-73
2022/11/17 10:28:22;;;;;;;12.48;8.30;;;7.70;99.90;;;;;;4777474;30;20085;-68
2022/11/17 10:30:59;;;;;;;11.00;8.35;;;7.80;99.90;;;;;;4792084;30;20538;-69
2022/11/17 10:33:35;;;;;;;11.85;8.35;;;7.80;99.90;;;;;;4793263;29;20054;-69
2022/11/17 10:36:04;;;;;;;14.32;8.85;;;7.70;99.90;;;;;;4793478;29;20353;-68
2022/11/17 10:38:32;;;;;;;11.40;8.27;;;7.80;99.90;;;;;;4792136;30;20126;-68
2022/11/17 10:41:00;;;;;;;13.70;9.10;;;7.70;99.90;;;;;;4793485;29;20047;-69
2022/11/17 10:43:29;;;;;;;13.07;8.77;;;7.80;99.90;;;;;;4792154;30;20448;-68
2022/11/17 10:45:59;;;;;;;12.75;8.60;;;7.80;99.90;;;;;;4792407;30;20393;-69
2022/11/17 10:48:28;;;;;;;11.27;8.45;;;7.90;99.90;;;;;;4793255;30;20051;-68
2022/11/17 10:51:03;;;;;;;11.88;8.48;;;7.80;99.90;;;;;;4792242;30;20062;-68
2022/11/17 10:53:37;;;;;;;12.35;8.25;;;7.70;99.90;;;;;;4792648;29;20083;-68
2022/11/17 10:56:13;;;;;;;10.95;7.75;;;7.70;99.90;;;;;;4792208;30;20417;-68
2022/11/17 10:59:00;;;;;;;11.07;7.75;;;7.70;99.90;;;;;;4793067;29;20058;-68
2022/11/17 11:01:34;;;;;;;12.52;8.48;;;7.80;99.90;;;;;;4792781;30;20083;-68
2022/11/17 11:04:01;;;;;;;11.52;8.60;;;7.80;99.90;;;;;;4793155;30;20050;-68
2022/11/17 11:06:29;;;;;;;12.98;8.70;;;7.90;99.90;;;;;;4791604;30;20046;-68
2022/11/17 11:09:14;;;;;;;13.20;8.70;;;7.80;99.90;;;;;;4792941;29;20132;-68
2022/11/17 11:11:48;;;;;;;15.10;9.50;;;7.80;99.90;;;;;;4793006;29;20085;-68
2022/11/17 11:14:35;;;;;;;14.10;9.00;;;7.80;99.90;;;;;;4792840;30;20062;-70
2022/11/17 11:17:12;;;;;;;12.25;8.13;;;7.90;99.90;;;;;;4791642;30;20054;-69
2022/11/17 11:19:40;;;;;;;15.35;9.50;;;7.90;99.90;;;;;;4787134;30;20118;-70
2022/11/17 11:22:33;;;;;;;57.95;11.57;;;7.80;99.90;;;;;;4781693;30;20114;-68
2022/11/17 11:25:07;;;;;;;14.48;8.98;;;7.80;99.90;;;;;;4792115;29;20059;-73
2022/11/17 11:27:44;;;;;;;13.45;8.93;;;7.80;99.90;;;;;;4777842;30;20415;-73
2022/11/17 11:30:14;;;;;;;14.95;9.38;;;7.70;99.90;;;;;;4788597;30;20059;-68
2022/11/17 11:32:54;;;;;;;13.20;9.13;;;7.70;99.90;;;;;;4792150;29;20092;-69
2022/11/17 11:35:26;;;;;;;14.52;9.88;;;7.80;99.90;;;;;;4791033;29;20051;-69
2022/11/17 11:38:39;;;;;;;13.48;9.38;;;7.80;99.90;;;;;;4791286;29;20055;-69
2022/11/17 11:41:29;;;;;;;16.77;10.60;;;7.80;99.90;;;;;;4762591;30;20122;-68
2022/11/17 11:44:00;;;;;;;16.27;9.52;;;7.70;99.90;;;;;;4788664;29;20054;-70
2022/11/17 11:46:48;;;;;;;13.32;9.55;;;7.90;99.90;;;;;;4788692;29;20051;-70
2022/11/17 11:49:28;;;;;;;17.45;10.88;;;7.90;99.90;;;;;;4790695;30;20497;-72
2022/11/17 11:51:54;;;;;;;16.35;10.90;;;7.80;99.90;;;;;;4792280;29;20047;-70
2022/11/17 11:54:40;;;;;;;14.27;9.43;;;7.90;99.90;;;;;;4791415;30;20084;-69
2022/11/17 11:57:15;;;;;;;15.13;9.60;;;7.90;99.90;;;;;;4792044;30;20126;-69
2022/11/17 12:00:05;;;;;;;14.77;9.70;;;7.90;99.90;;;;;;4791909;29;20053;-70
2022/11/17 12:02:54;;;;;;;14.43;9.40;;;7.90;99.90;;;;;;4791912;30;20051;-68
2022/11/17 12:05:36;;;;;;;14.55;10.38;;;8.00;99.90;;;;;;4792147;29;20130;-70
2022/11/17 12:08:26;;;;;;;14.55;10.05;;;8.20;99.90;;;;;;4791736;29;20047;-70
2022/11/17 12:10:56;;;;;;;14.02;9.65;;;8.10;99.90;;;;;;4791902;29;20047;-69
2022/11/17 12:13:22;;;;;;;16.92;9.70;;;8.00;99.90;;;;;;4790990;30;20138;-69
2022/11/17 12:15:48;;;;;;;15.30;10.60;;;7.90;99.90;;;;;;4791763;30;20395;-70
2022/11/17 12:18:17;;;;;;;16.52;10.23;;;8.00;99.90;;;;;;4791699;29;20138;-70
2022/11/17 12:20:51;;;;;;;12.88;9.20;;;8.00;99.90;;;;;;4791585;30;20062;-69
2022/11/17 12:23:20;;;;;;;15.57;9.82;;;8.00;99.90;;;;;;4791230;30;20126;-69
2022/11/17 12:25:49;;;;;;;13.25;8.88;;;8.10;99.90;;;;;;4791561;30;20051;-69
2022/11/17 12:28:36;;;;;;;14.10;8.93;;;8.00;99.90;;;;;;4791737;29;20051;-69
2022/11/17 12:31:09;;;;;;;13.00;9.00;;;8.00;99.90;;;;;;4791453;29;20070;-69
2022/11/17 12:34:09;;;;;;;16.50;9.30;;;8.00;99.90;;;;;;4791403;30;20143;-70
2022/11/17 12:36:35;;;;;;;12.32;8.00;;;8.10;99.90;;;;;;4791703;29;20043;-70
2022/11/17 12:39:25;;;;;;;12.10;8.10;;;8.20;99.90;;;;;;4790319;30;20070;-70
2022/11/17 12:41:50;;;;;;;14.50;9.15;;;8.20;99.90;;;;;;4791441;30;20039;-69
2022/11/17 12:44:42;;;;;;;12.07;8.10;;;8.30;99.90;;;;;;4790639;30;20043;-70
2022/11/17 12:47:20;;;;;;;13.25;7.95;;;8.30;99.90;;;;;;4791212;30;20047;-69
2022/11/17 12:50:01;;;;;;;14.43;8.77;;;8.20;99.90;;;;;;4790434;30;20350;-69
2022/11/17 12:52:45;;;;;;;11.88;8.10;;;8.20;99.90;;;;;;4790669;30;20055;-71
2022/11/17 12:55:48;;;;;;;14.95;8.88;;;8.30;99.90;;;;;;4791507;29;20099;-70
2022/11/17 12:58:40;;;;;;;10.95;7.45;;;8.40;99.90;;;;;;4790036;29;20055;-69
2022/11/17 13:01:14;;;;;;;10.98;7.80;;;8.40;99.90;;;;;;4791243;29;20393;-69
2022/11/17 13:03:53;;;;;;;14.77;9.38;;;8.50;99.90;;;;;;4791026;30;20043;-69
2022/11/17 13:06:19;;;;;;;15.38;9.35;;;8.50;99.90;;;;;;4791112;30;20046;-69
2022/11/17 13:09:04;;;;;;;11.93;7.65;;;8.50;99.90;;;;;;4791077;29;20058;-70
2022/11/17 13:11:30;;;;;;;15.07;9.68;;;8.30;99.90;;;;;;4791121;29;20063;-70
2022/11/17 13:14:15;;;;;;;16.13;9.20;;;8.30;99.90;;;;;;4791118;29;20043;-69
2022/11/17 13:16:50;;;;;;;11.18;7.90;;;8.60;99.90;;;;;;4791040;29;20430;-74
2022/11/17 13:19:35;;;;;;;13.13;8.07;;;8.50;99.90;;;;;;4790822;29;20047;-70
2022/11/17 13:22:05;;;;;;;12.15;8.55;;;8.50;99.90;;;;;;4791120;30;20177;-70
2022/11/17 13:24:33;;;;;;;12.18;7.93;;;8.50;99.90;;;;;;4789701;30;20062;-70
2022/11/17 13:27:01;;;;;;;11.68;8.13;;;8.50;99.90;;;;;;4790244;30;20113;-69
2022/11/17 13:29:27;;;;;;;13.48;8.88;;;8.50;99.90;;;;;;4790734;29;20138;-70
2022/11/17 13:32:13;;;;;;;11.27;7.65;;;8.60;99.90;;;;;;4790615;29;20091;-70